sensor_id;sensor_type;location;lat;lon;timestamp;pressure;altitude;pressure_sealevel;temperature;humidity
72950;BME280;64868;45.710;9.590;2023-05-22T00:00:05;98752.84;;;16.79;66.25
72950;BME280;64868;45.710;9.590;2023-05-22T00:02:38;98746.94;;;16.74;67.00
72950;BME280;64868;45.710;9.590;2023-05-22T00:05:11;98755.19;;;16.74;66.56
72950;BME280;64868;45.710;9.590;2023-05-22T00:07:44;98765.75;;;16.78;66.66
72950;BME280;64868;45.710;9.590;2023-05-22T00:10:16;98761.69;;;16.73;67.10
72950;BME280;64868;45.710;9.590;2023-05-22T00:12:47;98753.34;;;16.65;66.88
72950;BME280;64868;45.710;9.590;2023-05-22T00:15:19;98762.72;;;16.72;66.65
72950;BME280;64868;45.710;9.590;2023-05-22T00:17:49;98761.31;;;16.86;66.53
72950;BME280;64868;45.710;9.590;2023-05-22T00:20:20;98760.56;;;16.75;66.92
72950;BME280;64868;45.710;9.590;2023-05-22T00:22:52;98761.00;;;16.71;67.66
72950;BME280;64868;45.710;9.590;2023-05-22T00:25:25;98755.38;;;16.63;67.41
72950;BME280;64868;45.710;9.590;2023-05-22T00:27:55;98760.19;;;16.61;68.05
72950;BME280;64868;45.710;9.590;2023-05-22T00:30:25;98749.13;;;16.52;67.50
72950;BME280;64868;45.710;9.590;2023-05-22T00:32:58;98755.00;;;16.58;67.53
72950;BME280;64868;45.710;9.590;2023-05-22T00:35:31;98753.34;;;16.65;68.27
72950;BME280;64868;45.710;9.590;2023-05-22T00:38:04;98757.88;;;16.84;66.69
72950;BME280;64868;45.710;9.590;2023-05-22T00:40:37;98754.03;;;16.76;66.82
72950;BME280;64868;45.710;9.590;2023-05-22T00:43:07;98755.81;;;16.86;66.42
72950;BME280;64868;45.710;9.590;2023-05-22T00:45:38;98759.84;;;16.91;67.08
72950;BME280;64868;45.710;9.590;2023-05-22T00:48:08;98758.31;;;16.97;66.55
72950;BME280;64868;45.710;9.590;2023-05-22T00:50:41;98761.06;;;17.15;65.80
72950;BME280;64868;45.710;9.590;2023-05-22T00:53:13;98766.34;;;17.08;65.75
72950;BME280;64868;45.710;9.590;2023-05-22T00:55:46;98783.50;;;17.20;65.40
72950;BME280;64868;45.710;9.590;2023-05-22T00:58:18;98805.63;;;17.10;65.26
72950;BME280;64868;45.710;9.590;2023-05-22T01:00:50;98792.06;;;17.17;65.27
72950;BME280;64868;45.710;9.590;2023-05-22T01:03:23;98788.53;;;17.24;65.15
72950;BME280;64868;45.710;9.590;2023-05-22T01:05:54;98795.38;;;17.20;65.69
72950;BME280;64868;45.710;9.590;2023-05-22T01:08:27;98783.94;;;17.15;65.75
72950;BME280;64868;45.710;9.590;2023-05-22T01:11:03;98786.72;;;17.15;65.63
72950;BME280;64868;45.710;9.590;2023-05-22T01:13:59;98792.19;;;17.33;65.15
72950;BME280;64868;45.710;9.590;2023-05-22T01:16:38;98781.75;;;17.19;65.09
72950;BME280;64868;45.710;9.590;2023-05-22T01:22:48;98789.63;;;17.14;65.75
72950;BME280;64868;45.710;9.590;2023-05-22T01:31:05;98806.34;;;17.38;67.00
72950;BME280;64868;45.710;9.590;2023-05-22T01:33:43;98802.22;;;17.16;67.43
72950;BME280;64868;45.710;9.590;2023-05-22T01:36:17;98812.59;;;17.05;69.42
72950;BME280;64868;45.710;9.590;2023-05-22T01:38:51;98813.88;;;16.92;69.75
72950;BME280;64868;45.710;9.590;2023-05-22T01:41:23;98822.78;;;16.86;70.91
72950;BME280;64868;45.710;9.590;2023-05-22T01:43:54;98832.69;;;16.79;71.90
72950;BME280;64868;45.710;9.590;2023-05-22T01:46:27;98832.72;;;16.69;73.39
72950;BME280;64868;45.710;9.590;2023-05-22T01:49:00;98821.38;;;16.54;74.91
72950;BME280;64868;45.710;9.590;2023-05-22T01:51:34;98842.69;;;16.52;75.02
72950;BME280;64868;45.710;9.590;2023-05-22T01:57:15;98841.66;;;16.53;73.84
72950;BME280;64868;45.710;9.590;2023-05-22T02:00:08;98833.34;;;16.36;75.97
72950;BME280;64868;45.710;9.590;2023-05-22T02:02:43;98830.25;;;16.21;76.11
72950;BME280;64868;45.710;9.590;2023-05-22T02:05:14;98830.72;;;16.16;76.33
72950;BME280;64868;45.710;9.590;2023-05-22T02:07:46;98838.84;;;16.08;78.05
72950;BME280;64868;45.710;9.590;2023-05-22T02:10:19;98836.84;;;16.10;77.35
72950;BME280;64868;45.710;9.590;2023-05-22T02:12:52;98828.41;;;16.12;77.75
72950;BME280;64868;45.710;9.590;2023-05-22T02:15:25;98831.38;;;16.00;78.23
72950;BME280;64868;45.710;9.590;2023-05-22T02:18:00;98840.53;;;15.91;79.83
72950;BME280;64868;45.710;9.590;2023-05-22T02:20:33;98825.31;;;15.87;79.23
72950;BME280;64868;45.710;9.590;2023-05-22T02:23:05;98821.56;;;15.88;79.28
72950;BME280;64868;45.710;9.590;2023-05-22T02:25:36;98816.06;;;15.88;79.50
72950;BME280;64868;45.710;9.590;2023-05-22T02:28:08;98815.22;;;15.88;78.53
72950;BME280;64868;45.710;9.590;2023-05-22T02:30:38;98822.16;;;15.92;79.08
72950;BME280;64868;45.710;9.590;2023-05-22T02:33:11;98809.44;;;15.81;78.48
72950;BME280;64868;45.710;9.590;2023-05-22T02:35:43;98802.94;;;15.82;79.67
72950;BME280;64868;45.710;9.590;2023-05-22T02:38:16;98808.03;;;15.77;79.78
72950;BME280;64868;45.710;9.590;2023-05-22T02:40:49;98803.69;;;15.74;80.20
72950;BME280;64868;45.710;9.590;2023-05-22T02:43:21;98809.91;;;15.76;79.74
72950;BME280;64868;45.710;9.590;2023-05-22T02:45:54;98814.94;;;15.81;79.58
72950;BME280;64868;45.710;9.590;2023-05-22T02:48:24;98800.22;;;15.72;79.75
72950;BME280;64868;45.710;9.590;2023-05-22T02:50:56;98818.41;;;15.83;79.66
72950;BME280;64868;45.710;9.590;2023-05-22T02:53:28;98822.91;;;15.84;79.35
72950;BME280;64868;45.710;9.590;2023-05-22T02:56:00;98818.09;;;15.86;79.46
72950;BME280;64868;45.710;9.590;2023-05-22T02:58:33;98833.16;;;15.82;79.56
72950;BME280;64868;45.710;9.590;2023-05-22T03:01:05;98832.31;;;15.81;78.79
72950;BME280;64868;45.710;9.590;2023-05-22T03:03:38;98831.38;;;16.00;77.96
72950;BME280;64868;45.710;9.590;2023-05-22T03:06:11;98810.69;;;15.96;77.67
72950;BME280;64868;45.710;9.590;2023-05-22T03:08:41;98812.31;;;15.79;79.16
72950;BME280;64868;45.710;9.590;2023-05-22T03:11:11;98812.91;;;15.83;79.26
72950;BME280;64868;45.710;9.590;2023-05-22T03:13:44;98814.38;;;15.77;80.54
72950;BME280;64868;45.710;9.590;2023-05-22T03:16:16;98811.22;;;15.72;79.72
72950;BME280;64868;45.710;9.590;2023-05-22T03:18:49;98807.19;;;15.67;80.16
72950;BME280;64868;45.710;9.590;2023-05-22T03:21:22;98811.66;;;15.68;80.57
72950;BME280;64868;45.710;9.590;2023-05-22T03:23:55;98805.44;;;15.66;80.23
72950;BME280;64868;45.710;9.590;2023-05-22T03:26:25;98808.19;;;15.66;80.19
72950;BME280;64868;45.710;9.590;2023-05-22T03:28:55;98810.47;;;15.61;81.01
72950;BME280;64868;45.710;9.590;2023-05-22T03:31:28;98813.09;;;15.62;79.53
72950;BME280;64868;45.710;9.590;2023-05-22T03:34:04;98812.53;;;15.68;79.09
72950;BME280;64868;45.710;9.590;2023-05-22T03:36:37;98809.91;;;15.67;79.90
72950;BME280;64868;45.710;9.590;2023-05-22T03:39:09;98806.00;;;15.60;79.93
72950;BME280;64868;45.710;9.590;2023-05-22T03:41:40;98812.06;;;15.63;79.97
72950;BME280;64868;45.710;9.590;2023-05-22T03:44:12;98804.84;;;15.62;79.68
72950;BME280;64868;45.710;9.590;2023-05-22T03:46:40;98802.69;;;15.66;79.92
72950;BME280;64868;45.710;9.590;2023-05-22T03:49:11;98802.25;;;15.70;79.94
72950;BME280;64868;45.710;9.590;2023-05-22T03:51:43;98795.31;;;15.66;79.49
72950;BME280;64868;45.710;9.590;2023-05-22T03:54:16;98787.94;;;15.67;79.81
72950;BME280;64868;45.710;9.590;2023-05-22T03:56:49;98798.06;;;15.66;79.59
72950;BME280;64868;45.710;9.590;2023-05-22T03:59:19;98803.53;;;15.76;78.63
72950;BME280;64868;45.710;9.590;2023-05-22T04:01:52;98796.56;;;15.81;78.98
72950;BME280;64868;45.710;9.590;2023-05-22T04:04:22;98795.78;;;15.99;77.76
72950;BME280;64868;45.710;9.590;2023-05-22T04:06:55;98793.16;;;15.97;77.36
72950;BME280;64868;45.710;9.590;2023-05-22T04:09:31;98796.00;;;16.05;77.18
72950;BME280;64868;45.710;9.590;2023-05-22T04:12:01;98797.91;;;16.05;76.41
72950;BME280;64868;45.710;9.590;2023-05-22T04:14:32;98794.00;;;16.08;76.49
72950;BME280;64868;45.710;9.590;2023-05-22T04:17:03;98794.84;;;16.08;76.04
72950;BME280;64868;45.710;9.590;2023-05-22T04:19:35;98791.53;;;16.04;76.26
72950;BME280;64868;45.710;9.590;2023-05-22T04:22:07;98799.75;;;16.14;75.84
72950;BME280;64868;45.710;9.590;2023-05-22T04:24:38;98802.50;;;16.14;75.94
72950;BME280;64868;45.710;9.590;2023-05-22T04:27:10;98789.31;;;16.18;75.45
72950;BME280;64868;45.710;9.590;2023-05-22T04:29:43;98802.59;;;16.22;75.87
72950;BME280;64868;45.710;9.590;2023-05-22T04:32:13;98796.25;;;16.22;74.74
72950;BME280;64868;45.710;9.590;2023-05-22T04:34:47;98803.16;;;16.26;75.68
72950;BME280;64868;45.710;9.590;2023-05-22T04:37:20;98801.66;;;16.32;76.11
72950;BME280;64868;45.710;9.590;2023-05-22T04:39:53;98803.09;;;16.36;75.09
72950;BME280;64868;45.710;9.590;2023-05-22T04:42:24;98802.31;;;16.43;74.37
72950;BME280;64868;45.710;9.590;2023-05-22T04:44:55;98806.50;;;16.47;74.70
72950;BME280;64868;45.710;9.590;2023-05-22T04:47:27;98808.81;;;16.52;73.74
72950;BME280;64868;45.710;9.590;2023-05-22T04:50:00;98801.41;;;16.52;74.55
72950;BME280;64868;45.710;9.590;2023-05-22T04:52:33;98802.34;;;16.61;74.13
72950;BME280;64868;45.710;9.590;2023-05-22T04:55:03;98807.44;;;16.84;72.70
72950;BME280;64868;45.710;9.590;2023-05-22T04:57:35;98810.09;;;17.11;72.52
72950;BME280;64868;45.710;9.590;2023-05-22T05:00:09;98808.19;;;17.30;71.82
72950;BME280;64868;45.710;9.590;2023-05-22T05:02:39;98795.72;;;17.43;71.34
72950;BME280;64868;45.710;9.590;2023-05-22T05:05:12;98801.53;;;17.84;69.52
72950;BME280;64868;45.710;9.590;2023-05-22T05:07:42;98802.03;;;18.22;68.23
72950;BME280;64868;45.710;9.590;2023-05-22T05:10:14;98799.94;;;18.50;67.15
72950;BME280;64868;45.710;9.590;2023-05-22T05:12:47;98802.94;;;18.73;65.89
72950;BME280;64868;45.710;9.590;2023-05-22T05:15:15;98794.88;;;18.96;64.97
72950;BME280;64868;45.710;9.590;2023-05-22T05:17:45;98799.91;;;19.17;64.23
72950;BME280;64868;45.710;9.590;2023-05-22T05:20:18;98792.28;;;19.19;63.10
72950;BME280;64868;45.710;9.590;2023-05-22T05:22:51;98804.72;;;19.23;63.26
72950;BME280;64868;45.710;9.590;2023-05-22T05:25:23;98794.72;;;19.22;63.30
72950;BME280;64868;45.710;9.590;2023-05-22T05:27:55;98799.53;;;19.20;62.96
72950;BME280;64868;45.710;9.590;2023-05-22T05:30:26;98792.09;;;19.20;63.45
72950;BME280;64868;45.710;9.590;2023-05-22T05:32:58;98797.09;;;19.58;62.40
72950;BME280;64868;45.710;9.590;2023-05-22T05:35:31;98792.75;;;19.88;61.32
72950;BME280;64868;45.710;9.590;2023-05-22T05:38:04;98784.66;;;20.26;59.47
72950;BME280;64868;45.710;9.590;2023-05-22T05:40:34;98789.47;;;20.71;58.58
72950;BME280;64868;45.710;9.590;2023-05-22T05:43:04;98792.69;;;21.06;56.62
72950;BME280;64868;45.710;9.590;2023-05-22T05:45:37;98789.13;;;21.20;56.17
72950;BME280;64868;45.710;9.590;2023-05-22T05:48:09;98801.56;;;21.24;56.30
72950;BME280;64868;45.710;9.590;2023-05-22T05:50:42;98796.59;;;21.20;55.93
72950;BME280;64868;45.710;9.590;2023-05-22T05:53:15;98801.88;;;21.37;55.53
72950;BME280;64868;45.710;9.590;2023-05-22T05:55:45;98802.97;;;21.66;55.38
72950;BME280;64868;45.710;9.590;2023-05-22T05:58:15;98793.88;;;21.57;55.65
72950;BME280;64868;45.710;9.590;2023-05-22T06:00:48;98801.00;;;21.37;55.57
72950;BME280;64868;45.710;9.590;2023-05-22T06:03:18;98797.66;;;20.96;56.45
72950;BME280;64868;45.710;9.590;2023-05-22T06:05:48;98796.81;;;20.87;56.57
72950;BME280;64868;45.710;9.590;2023-05-22T06:08:21;98795.88;;;21.03;56.61
72950;BME280;64868;45.710;9.590;2023-05-22T06:10:51;98806.75;;;24.95;46.96
72950;BME280;64868;45.710;9.590;2023-05-22T06:13:23;98815.06;;;23.56;49.14
72950;BME280;64868;45.710;9.590;2023-05-22T06:15:53;98807.13;;;23.10;50.61
72950;BME280;64868;45.710;9.590;2023-05-22T06:18:21;98813.19;;;23.63;48.97
72950;BME280;64868;45.710;9.590;2023-05-22T06:20:54;98813.22;;;28.33;38.17
72950;BME280;64868;45.710;9.590;2023-05-22T06:23:24;98805.22;;;31.73;32.08
72950;BME280;64868;45.710;9.590;2023-05-22T06:25:54;98810.66;;;27.25;39.17
72950;BME280;64868;45.710;9.590;2023-05-22T06:28:24;98799.06;;;24.97;43.71
72950;BME280;64868;45.710;9.590;2023-05-22T06:30:54;98808.47;;;24.41;44.66
72950;BME280;64868;45.710;9.590;2023-05-22T06:33:27;98817.53;;;23.01;48.67
72950;BME280;64868;45.710;9.590;2023-05-22T06:36:00;98816.72;;;22.12;51.46
72950;BME280;64868;45.710;9.590;2023-05-22T06:38:30;98811.72;;;21.93;52.74
72950;BME280;64868;45.710;9.590;2023-05-22T06:41:00;98813.00;;;22.20;52.35
72950;BME280;64868;45.710;9.590;2023-05-22T06:43:30;98804.25;;;22.08;52.34
72950;BME280;64868;45.710;9.590;2023-05-22T06:46:03;98808.72;;;22.47;52.27
72950;BME280;64868;45.710;9.590;2023-05-22T06:48:39;98805.38;;;22.73;50.52
72950;BME280;64868;45.710;9.590;2023-05-22T06:51:11;98801.72;;;22.87;49.96
72950;BME280;64868;45.710;9.590;2023-05-22T06:53:44;98802.31;;;22.82;50.65
72950;BME280;64868;45.710;9.590;2023-05-22T06:56:14;98799.06;;;23.15;49.56
72950;BME280;64868;45.710;9.590;2023-05-22T06:58:47;98787.38;;;25.75;44.78
72950;BME280;64868;45.710;9.590;2023-05-22T07:01:19;98796.00;;;31.78;32.10
72950;BME280;64868;45.710;9.590;2023-05-22T07:03:52;98805.66;;;34.51;26.63
72950;BME280;64868;45.710;9.590;2023-05-22T07:06:22;98805.06;;;33.30;28.49
72950;BME280;64868;45.710;9.590;2023-05-22T07:08:51;98806.63;;;37.13;23.28
72950;BME280;64868;45.710;9.590;2023-05-22T07:11:21;98801.00;;;39.13;20.51
72950;BME280;64868;45.710;9.590;2023-05-22T07:13:53;98827.59;;;39.33;20.13
72950;BME280;64868;45.710;9.590;2023-05-22T07:16:26;98814.56;;;40.40;19.11
72950;BME280;64868;45.710;9.590;2023-05-22T07:18:56;98817.94;;;40.42;19.12
72950;BME280;64868;45.710;9.590;2023-05-22T07:21:26;98823.13;;;41.69;17.51
72950;BME280;64868;45.710;9.590;2023-05-22T07:23:59;98821.81;;;42.48;17.09
72950;BME280;64868;45.710;9.590;2023-05-22T07:26:31;98816.13;;;40.65;18.64
72950;BME280;64868;45.710;9.590;2023-05-22T07:29:02;98815.84;;;41.36;17.88
72950;BME280;64868;45.710;9.590;2023-05-22T07:31:35;98823.13;;;41.83;17.18
72950;BME280;64868;45.710;9.590;2023-05-22T07:34:07;98829.50;;;40.97;18.16
72950;BME280;64868;45.710;9.590;2023-05-22T07:36:40;98816.94;;;42.26;17.16
72950;BME280;64868;45.710;9.590;2023-05-22T07:39:13;98826.91;;;42.82;16.55
72950;BME280;64868;45.710;9.590;2023-05-22T07:41:46;98828.88;;;43.04;15.99
72950;BME280;64868;45.710;9.590;2023-05-22T07:44:20;98829.72;;;43.05;15.97
72950;BME280;64868;45.710;9.590;2023-05-22T07:46:50;98822.56;;;41.95;16.29
72950;BME280;64868;45.710;9.590;2023-05-22T07:49:23;98830.63;;;42.60;15.74
72950;BME280;64868;45.710;9.590;2023-05-22T07:51:53;98818.56;;;42.04;16.14
72950;BME280;64868;45.710;9.590;2023-05-22T07:54:23;98810.00;;;42.27;16.21
72950;BME280;64868;45.710;9.590;2023-05-22T07:56:55;98816.69;;;43.38;15.34
72950;BME280;64868;45.710;9.590;2023-05-22T07:59:26;98820.31;;;44.57;15.00
72950;BME280;64868;45.710;9.590;2023-05-22T08:01:58;98822.03;;;45.52;13.32
72950;BME280;64868;45.710;9.590;2023-05-22T08:04:31;98825.41;;;46.04;13.04
72950;BME280;64868;45.710;9.590;2023-05-22T08:07:03;98826.47;;;46.21;13.11
72950;BME280;64868;45.710;9.590;2023-05-22T08:09:36;98826.16;;;45.33;13.53
72950;BME280;64868;45.710;9.590;2023-05-22T08:14:39;98786.81;;;45.17;13.52
72950;BME280;64868;45.710;9.590;2023-05-22T08:17:04;98792.97;;;45.66;12.92
72950;BME280;64868;45.710;9.590;2023-05-22T08:19:32;98792.66;;;44.90;13.75
72950;BME280;64868;45.710;9.590;2023-05-22T08:21:57;98806.41;;;45.23;13.49
72950;BME280;64868;45.710;9.590;2023-05-22T08:24:28;98806.50;;;44.41;14.11
72950;BME280;64868;45.710;9.590;2023-05-22T08:26:59;98787.53;;;39.19;18.56
72950;BME280;64868;45.710;9.590;2023-05-22T08:29:25;98749.28;;;32.77;26.67
72950;BME280;64868;45.710;9.590;2023-05-22T08:31:53;98753.13;;;30.62;30.66
72950;BME280;64868;45.710;9.590;2023-05-22T08:34:23;98779.41;;;29.73;31.84
72950;BME280;64868;45.710;9.590;2023-05-22T08:36:52;98768.53;;;29.77;31.99
72950;BME280;64868;45.710;9.590;2023-05-22T08:39:24;98746.88;;;29.12;32.94
72950;BME280;64868;45.710;9.590;2023-05-22T08:41:54;98743.63;;;29.80;32.38
72950;BME280;64868;45.710;9.590;2023-05-22T08:44:20;98746.22;;;29.94;32.93
72950;BME280;64868;45.710;9.590;2023-05-22T08:46:48;98745.22;;;29.88;33.75
72950;BME280;64868;45.710;9.590;2023-05-22T08:49:16;98775.34;;;30.35;32.02
72950;BME280;64868;45.710;9.590;2023-05-22T08:51:46;98736.78;;;29.88;31.67
72950;BME280;64868;45.710;9.590;2023-05-22T08:54:17;98735.06;;;29.75;32.28
72950;BME280;64868;45.710;9.590;2023-05-22T08:56:48;98736.78;;;29.88;32.01
72950;BME280;64868;45.710;9.590;2023-05-22T08:59:20;98747.44;;;29.32;31.10
72950;BME280;64868;45.710;9.590;2023-05-22T09:01:54;98752.09;;;28.90;32.13
72950;BME280;64868;45.710;9.590;2023-05-22T09:04:26;98753.66;;;29.34;31.17
72950;BME280;64868;45.710;9.590;2023-05-22T09:06:59;98751.03;;;29.09;30.91
72950;BME280;64868;45.710;9.590;2023-05-22T09:09:32;98753.19;;;29.38;31.79
72950;BME280;64868;45.710;9.590;2023-05-22T09:12:05;98739.03;;;28.84;31.72
72950;BME280;64868;45.710;9.590;2023-05-22T09:14:47;98756.72;;;29.33;32.15
72950;BME280;64868;45.710;9.590;2023-05-22T09:17:20;98745.25;;;28.86;30.51
72950;BME280;64868;45.710;9.590;2023-05-22T09:19:52;98748.44;;;29.08;29.79
72950;BME280;64868;45.710;9.590;2023-05-22T09:22:25;98746.56;;;28.72;29.40
72950;BME280;64868;45.710;9.590;2023-05-22T09:25:06;98745.41;;;28.43;31.33
72950;BME280;64868;45.710;9.590;2023-05-22T09:27:39;98752.75;;;28.92;31.40
72950;BME280;64868;45.710;9.590;2023-05-22T09:30:18;98747.16;;;28.74;29.12
72950;BME280;64868;45.710;9.590;2023-05-22T09:32:49;98747.81;;;28.57;30.38
72950;BME280;64868;45.710;9.590;2023-05-22T09:35:22;98747.34;;;28.60;29.63
72950;BME280;64868;45.710;9.590;2023-05-22T09:37:54;98746.22;;;28.98;29.93
72950;BME280;64868;45.710;9.590;2023-05-22T09:40:25;98758.22;;;28.87;29.52
72950;BME280;64868;45.710;9.590;2023-05-22T09:42:58;98745.69;;;28.71;30.42
72950;BME280;64868;45.710;9.590;2023-05-22T09:45:28;98746.25;;;29.40;28.99
72950;BME280;64868;45.710;9.590;2023-05-22T09:47:58;98751.66;;;29.65;28.27
72950;BME280;64868;45.710;9.590;2023-05-22T09:50:29;98745.06;;;29.18;29.29
72950;BME280;64868;45.710;9.590;2023-05-22T09:53:00;98749.69;;;29.12;29.15
72950;BME280;64868;45.710;9.590;2023-05-22T09:55:34;98752.53;;;29.24;29.75
72950;BME280;64868;45.710;9.590;2023-05-22T09:58:04;98750.72;;;29.83;30.12
72950;BME280;64868;45.710;9.590;2023-05-22T10:00:36;98752.56;;;30.01;28.34
72950;BME280;64868;45.710;9.590;2023-05-22T10:03:12;98757.19;;;29.95;29.95
72950;BME280;64868;45.710;9.590;2023-05-22T10:05:47;98756.13;;;30.32;29.44
72950;BME280;64868;45.710;9.590;2023-05-22T10:08:35;98731.25;;;30.52;28.68
72950;BME280;64868;45.710;9.590;2023-05-22T10:11:08;98745.00;;;29.78;30.17
72950;BME280;64868;45.710;9.590;2023-05-22T10:13:38;98745.25;;;29.46;29.41
72950;BME280;64868;45.710;9.590;2023-05-22T10:16:10;98749.59;;;29.72;29.37
72950;BME280;64868;45.710;9.590;2023-05-22T10:18:43;98739.38;;;30.01;29.15
72950;BME280;64868;45.710;9.590;2023-05-22T10:21:16;98742.34;;;31.11;28.31
72950;BME280;64868;45.710;9.590;2023-05-22T10:23:49;98737.25;;;32.04;25.93
72950;BME280;64868;45.710;9.590;2023-05-22T10:26:20;98738.31;;;32.80;25.13
72950;BME280;64868;45.710;9.590;2023-05-22T10:28:52;98740.72;;;32.66;24.63
72950;BME280;64868;45.710;9.590;2023-05-22T10:31:33;98742.41;;;31.90;25.82
72950;BME280;64868;45.710;9.590;2023-05-22T10:34:12;98726.75;;;30.39;26.81
72950;BME280;64868;45.710;9.590;2023-05-22T10:37:04;98738.66;;;30.18;28.09
72950;BME280;64868;45.710;9.590;2023-05-22T10:39:55;98735.75;;;29.47;29.89
72950;BME280;64868;45.710;9.590;2023-05-22T10:42:30;98731.50;;;29.15;29.99
72950;BME280;64868;45.710;9.590;2023-05-22T10:45:05;98730.31;;;29.88;29.03
72950;BME280;64868;45.710;9.590;2023-05-22T10:47:35;98734.31;;;30.91;27.16
72950;BME280;64868;45.710;9.590;2023-05-22T10:50:12;98733.66;;;31.29;26.65
72950;BME280;64868;45.710;9.590;2023-05-22T10:52:42;98724.41;;;31.17;25.18
72950;BME280;64868;45.710;9.590;2023-05-22T10:55:13;98722.72;;;30.87;26.82
72950;BME280;64868;45.710;9.590;2023-05-22T10:57:45;98731.59;;;31.24;26.80
72950;BME280;64868;45.710;9.590;2023-05-22T11:00:25;98726.91;;;30.85;27.29
72950;BME280;64868;45.710;9.590;2023-05-22T11:03:05;98731.09;;;32.07;25.61
72950;BME280;64868;45.710;9.590;2023-05-22T11:05:38;98720.53;;;32.36;24.42
72950;BME280;64868;45.710;9.590;2023-05-22T11:08:12;98716.53;;;31.47;26.28
72950;BME280;64868;45.710;9.590;2023-05-22T11:11:00;98718.78;;;32.52;25.12
72950;BME280;64868;45.710;9.590;2023-05-22T11:13:38;98722.03;;;33.09;24.71
72950;BME280;64868;45.710;9.590;2023-05-22T11:16:10;98723.63;;;31.05;27.73
72950;BME280;64868;45.710;9.590;2023-05-22T11:18:42;98712.41;;;30.52;27.69
72950;BME280;64868;45.710;9.590;2023-05-22T11:21:13;98719.25;;;29.51;28.63
72950;BME280;64868;45.710;9.590;2023-05-22T11:23:47;98697.88;;;28.78;30.93
72950;BME280;64868;45.710;9.590;2023-05-22T11:26:20;98701.84;;;29.84;29.99
72950;BME280;64868;45.710;9.590;2023-05-22T11:28:53;98702.94;;;29.06;29.82
72950;BME280;64868;45.710;9.590;2023-05-22T11:31:23;98705.19;;;29.39;30.81
72950;BME280;64868;45.710;9.590;2023-05-22T11:33:56;98703.41;;;28.84;30.71
72950;BME280;64868;45.710;9.590;2023-05-22T11:36:28;98705.72;;;28.76;31.10
72950;BME280;64868;45.710;9.590;2023-05-22T11:39:02;98695.69;;;28.98;31.80
72950;BME280;64868;45.710;9.590;2023-05-22T11:41:33;98699.03;;;29.72;31.01
72950;BME280;64868;45.710;9.590;2023-05-22T11:44:09;98697.28;;;30.82;29.29
72950;BME280;64868;45.710;9.590;2023-05-22T11:46:41;98709.25;;;30.89;27.76
72950;BME280;64868;45.710;9.590;2023-05-22T11:49:14;98688.97;;;30.12;29.02
72950;BME280;64868;45.710;9.590;2023-05-22T11:51:47;98699.66;;;30.62;29.07
72950;BME280;64868;45.710;9.590;2023-05-22T11:54:24;98701.47;;;30.68;28.91
72950;BME280;64868;45.710;9.590;2023-05-22T11:56:54;98695.56;;;30.41;28.44
72950;BME280;64868;45.710;9.590;2023-05-22T11:59:27;98700.03;;;30.94;28.30
72950;BME280;64868;45.710;9.590;2023-05-22T12:02:00;98697.44;;;31.04;28.30
72950;BME280;64868;45.710;9.590;2023-05-22T12:04:33;98696.84;;;30.62;28.16
72950;BME280;64868;45.710;9.590;2023-05-22T12:07:06;98699.13;;;30.13;28.62
72950;BME280;64868;45.710;9.590;2023-05-22T12:09:36;98693.09;;;31.13;28.16
72950;BME280;64868;45.710;9.590;2023-05-22T12:12:04;98689.84;;;30.24;29.83
72950;BME280;64868;45.710;9.590;2023-05-22T12:14:34;98694.44;;;30.53;30.02
72950;BME280;64868;45.710;9.590;2023-05-22T12:17:07;98704.47;;;30.90;29.00
72950;BME280;64868;45.710;9.590;2023-05-22T12:19:43;98695.56;;;30.41;29.77
72950;BME280;64868;45.710;9.590;2023-05-22T12:22:15;98696.53;;;30.46;29.69
72950;BME280;64868;45.710;9.590;2023-05-22T12:24:53;98694.75;;;30.57;29.41
72950;BME280;64868;45.710;9.590;2023-05-22T12:27:20;98687.25;;;30.34;30.01
72950;BME280;64868;45.710;9.590;2023-05-22T12:29:56;98684.09;;;29.95;30.38
72950;BME280;64868;45.710;9.590;2023-05-22T12:32:24;98689.69;;;30.30;30.67
72950;BME280;64868;45.710;9.590;2023-05-22T12:35:00;98694.38;;;30.13;29.61
72950;BME280;64868;45.710;9.590;2023-05-22T12:37:31;98681.63;;;30.34;30.60
72950;BME280;64868;45.710;9.590;2023-05-22T12:40:04;98688.28;;;30.16;30.90
72950;BME280;64868;45.710;9.590;2023-05-22T12:42:37;98679.34;;;30.60;30.85
72950;BME280;64868;45.710;9.590;2023-05-22T12:45:10;98677.75;;;30.64;31.24
72950;BME280;64868;45.710;9.590;2023-05-22T12:47:41;98679.75;;;30.51;30.43
72950;BME280;64868;45.710;9.590;2023-05-22T12:50:13;98673.66;;;30.83;30.49
72950;BME280;64868;45.710;9.590;2023-05-22T12:52:46;98680.78;;;31.02;28.30
72950;BME280;64868;45.710;9.590;2023-05-22T12:55:19;98664.91;;;31.13;28.48
72950;BME280;64868;45.710;9.590;2023-05-22T12:57:51;98686.41;;;31.48;28.55
72950;BME280;64868;45.710;9.590;2023-05-22T13:00:22;98667.81;;;30.73;28.01
72950;BME280;64868;45.710;9.590;2023-05-22T13:02:54;98675.81;;;29.77;30.85
72950;BME280;64868;45.710;9.590;2023-05-22T13:05:27;98666.84;;;30.03;29.13
72950;BME280;64868;45.710;9.590;2023-05-22T13:07:57;98656.22;;;30.29;29.58
72950;BME280;64868;45.710;9.590;2023-05-22T13:10:28;98656.13;;;30.00;28.83
72950;BME280;64868;45.710;9.590;2023-05-22T13:13:00;98664.41;;;29.48;30.01
72950;BME280;64868;45.710;9.590;2023-05-22T13:15:33;98665.47;;;29.36;31.03
72950;BME280;64868;45.710;9.590;2023-05-22T13:18:04;98657.69;;;29.26;31.54
72950;BME280;64868;45.710;9.590;2023-05-22T13:20:32;98662.50;;;29.61;31.28
72950;BME280;64868;45.710;9.590;2023-05-22T13:23:02;98645.75;;;29.89;29.83
72950;BME280;64868;45.710;9.590;2023-05-22T13:25:31;98656.97;;;30.53;30.10
72950;BME280;64868;45.710;9.590;2023-05-22T13:27:59;98658.63;;;30.77;29.83
72950;BME280;64868;45.710;9.590;2023-05-22T13:30:32;98649.63;;;30.92;29.69
72950;BME280;64868;45.710;9.590;2023-05-22T13:33:05;98649.38;;;30.65;28.95
72950;BME280;64868;45.710;9.590;2023-05-22T13:35:35;98635.94;;;30.56;29.35
72950;BME280;64868;45.710;9.590;2023-05-22T13:38:05;98632.53;;;30.53;29.35
72950;BME280;64868;45.710;9.590;2023-05-22T13:40:38;98633.50;;;30.88;28.96